Time;durP1;ratioP1;P1;durP2;ratioP2;P2;SDS_P1;SDS_P2;PMS_P1;PMS_P2;Temp;Humidity;BMP_temperature;BMP_pressure;BME280_temperature;BME280_humidity;BME280_pressure;Samples;Min_cycle;Max_cycle;Signal;HPM_P1;HPM_P2
2023/02/14 00:01:42;;;;;;;19.98;12.82;;;;;;;4.89;69.01;99788.91;10440697;28;20053;-77
2023/02/14 00:07:04;;;;;;;19.55;12.57;;;;;;;4.92;69.28;99781.59;10468794;28;20138;-77
2023/02/14 00:12:25;;;;;;;20.55;13.13;;;;;;;4.94;69.23;99779.09;10476832;28;20041;-77
2023/02/14 00:17:46;;;;;;;18.75;12.13;;;;;;;4.91;69.49;99774.56;10476146;28;20040;-77
2023/02/14 00:23:07;;;;;;;19.33;11.55;;;;;;;4.97;69.25;99767.00;10476347;28;20037;-77
2023/02/14 00:28:28;;;;;;;20.92;12.85;;;;;;;4.98;69.69;99768.50;10461989;28;20074;-77
2023/02/14 00:33:49;;;;;;;20.25;12.63;;;;;;;5.04;69.87;99780.34;10461849;28;20048;-77
2023/02/14 00:39:11;;;;;;;19.30;12.43;;;;;;;5.07;69.86;99765.47;10463385;28;20040;-76
2023/02/14 00:44:32;;;;;;;21.30;13.15;;;;;;;5.09;69.20;99785.09;10479717;28;20040;-77
2023/02/14 00:49:53;;;;;;;19.83;12.68;;;;;;;5.08;69.42;99781.56;10461283;28;20045;-77
2023/02/14 00:55:13;;;;;;;19.88;12.20;;;;;;;5.09;70.05;99774.00;10459565;28;20051;-77
2023/02/14 01:00:34;;;;;;;20.63;12.32;;;;;;;5.08;69.83;99772.50;10459906;28;20494;-76
2023/02/14 01:05:55;;;;;;;21.20;12.85;;;;;;;5.07;70.17;99768.22;10460363;28;20043;-76
2023/02/14 01:11:18;;;;;;;19.58;12.25;;;;;;;5.05;70.48;99763.22;10460358;28;20051;-77
2023/02/14 01:16:39;;;;;;;21.20;13.13;;;;;;;5.08;70.57;99778.78;10460197;28;20071;-77
2023/02/14 01:22:00;;;;;;;18.42;11.82;;;;;;;5.11;70.46;99766.69;10473996;28;20044;-77
2023/02/14 01:27:21;;;;;;;20.02;11.95;;;;;;;5.13;70.33;99766.22;10474689;28;20406;-77
2023/02/14 01:32:42;;;;;;;21.83;12.77;;;;;;;5.11;70.28;99761.16;10459574;28;20041;-77
2023/02/14 01:38:04;;;;;;;19.75;12.30;;;;;;;5.13;70.45;99761.41;10459690;28;20474;-77
2023/02/14 01:43:26;;;;;;;19.65;12.27;;;;;;;5.13;70.36;99758.66;10476377;28;20040;-77
2023/02/14 01:48:49;;;;;;;17.30;11.63;;;;;;;5.14;70.66;99745.56;10460213;28;20044;-80
2023/02/14 01:54:10;;;;;;;17.88;11.30;;;;;;;5.11;70.67;99750.09;10472121;28;20109;-76
2023/02/14 01:59:38;;;;;;;15.98;10.63;;;;;;;5.12;70.92;99746.06;10460207;28;20061;-77
2023/02/14 02:05:05;;;;;;;20.65;12.73;;;;;;;5.06;71.50;99747.34;10496369;28;20056;-76
2023/02/14 02:10:29;;;;;;;16.75;10.77;;;;;;;5.06;70.94;99742.56;10484917;28;20551;-77
2023/02/14 02:15:53;;;;;;;19.08;11.93;;;;;;;5.02;70.98;99746.84;10499361;28;20254;-77
2023/02/14 02:21:56;;;;;;;18.17;11.63;;;;;;;5.03;71.14;99743.59;10486242;28;20051;-77
2023/02/14 02:27:37;;;;;;;18.52;11.15;;;;;;;5.07;71.04;99748.84;10488627;28;20044;-77
2023/02/14 02:33:30;;;;;;;17.13;10.82;;;;;;;5.03;71.41;99734.53;10484497;28;20055;-77
2023/02/14 02:39:09;;;;;;;17.75;11.15;;;;;;;5.02;71.50;99728.25;10440130;28;20052;-77
2023/02/14 02:44:33;;;;;;;17.73;11.18;;;;;;;4.97;71.58;99728.25;10486748;28;20444;-77
2023/02/14 03:01:25;;;;;;;18.75;11.70;;;;;;;4.86;71.15;99724.28;10498567;28;20060;-77
2023/02/14 03:06:48;;;;;;;18.95;11.23;;;;;;;4.95;71.19;99719.72;10442859;28;20693;-77
2023/02/14 03:12:33;;;;;;;17.63;10.88;;;;;;;5.01;71.33;99725.97;10455724;28;20041;-77
2023/02/14 03:18:02;;;;;;;18.70;10.82;;;;;;;5.00;71.58;99721.69;10482963;28;20135;-77
2023/02/14 03:23:31;;;;;;;16.73;10.02;;;;;;;5.00;71.16;99732.78;10469004;28;20120;-77
2023/02/14 03:29:11;;;;;;;17.15;10.23;;;;;;;4.99;70.73;99731.25;10468963;28;20060;-77
2023/02/14 03:34:42;;;;;;;15.48;9.35;;;;;;;4.98;71.14;99724.22;10482628;28;20052;-77
2023/02/14 03:40:12;;;;;;;17.23;10.25;;;;;;;4.97;70.82;99728.25;10482281;28;20098;-77
2023/02/14 03:45:36;;;;;;;17.48;10.68;;;;;;;5.00;71.34;99730.00;10482481;28;20119;-77
2023/02/14 03:50:57;;;;;;;16.33;10.57;;;;;;;5.00;71.14;99727.97;10468921;28;20406;-77
2023/02/14 03:56:39;;;;;;;15.30;10.70;;;;;;;5.00;71.55;99732.78;10454504;28;20321;-77
2023/02/14 04:02:12;;;;;;;18.05;9.95;;;;;;;4.95;71.24;99722.50;10468513;28;20049;-77
2023/02/14 04:07:42;;;;;;;16.27;10.35;;;;;;;4.97;71.26;99728.25;10441379;28;20399;-77
2023/02/14 04:13:03;;;;;;;15.75;10.10;;;;;;;5.00;71.23;99719.69;10414623;28;20072;-77
2023/02/14 04:24:04;;;;;;;20.35;11.27;;;;;;;5.01;71.17;99712.13;10429124;28;20115;-77
2023/02/14 04:29:25;;;;;;;18.25;11.10;;;;;;;5.00;71.34;99705.09;10412662;28;20076;-77
2023/02/14 04:34:46;;;;;;;14.35;9.23;;;;;;;5.02;71.11;99705.31;10412581;28;20068;-77
2023/02/14 04:40:07;;;;;;;16.75;10.50;;;;;;;5.00;71.09;99700.31;10412352;28;20045;-77
2023/02/14 04:45:28;;;;;;;16.70;11.02;;;;;;;5.01;71.08;99698.28;10426706;28;20143;-77
2023/02/14 04:50:51;;;;;;;16.98;10.93;;;;;;;4.98;70.98;99696.56;10412475;28;20103;-76
2023/02/14 04:56:12;;;;;;;16.00;9.98;;;;;;;5.00;71.31;99694.78;10431495;28;20045;-77
2023/02/14 05:01:33;;;;;;;19.60;11.65;;;;;;;4.98;71.26;99685.47;10419574;28;20053;-77
2023/02/14 05:06:54;;;;;;;19.65;12.10;;;;;;;4.96;71.50;99686.00;10433211;28;20056;-77
2023/02/14 05:12:15;;;;;;;20.77;12.00;;;;;;;5.00;71.45;99682.94;10429834;28;20033;-76
2023/02/14 05:17:40;;;;;;;19.90;11.80;;;;;;;4.98;71.06;99691.00;10430464;28;20170;-76
2023/02/14 05:23:02;;;;;;;18.30;11.82;;;;;;;5.01;71.76;99692.75;10433167;28;20041;-76
2023/02/14 05:28:23;;;;;;;18.48;11.52;;;;;;;4.99;71.54;99690.50;10432639;28;20041;-76
2023/02/14 05:33:44;;;;;;;17.88;11.38;;;;;;;4.96;71.66;99679.72;10419143;28;20103;-77
2023/02/14 05:39:05;;;;;;;18.92;12.02;;;;;;;4.98;71.34;99682.72;10436094;28;20037;-76
2023/02/14 05:44:27;;;;;;;20.85;11.45;;;;;;;4.95;71.38;99678.19;10434607;28;20071;-76
2023/02/14 05:49:48;;;;;;;19.40;11.98;;;;;;;4.94;71.44;99696.06;10432554;28;20052;-77
2023/02/14 05:55:10;;;;;;;16.70;10.93;;;;;;;4.92;71.35;99696.56;10418062;28;20065;-77
2023/02/14 06:00:31;;;;;;;19.35;12.10;;;;;;;4.93;71.53;99698.09;10417857;28;20410;-76
2023/02/14 06:05:52;;;;;;;21.17;12.23;;;;;;;4.98;71.23;99702.09;10416889;28;20044;-76
2023/02/14 06:11:14;;;;;;;21.52;13.07;;;;;;;4.95;71.37;99700.34;10431056;28;20037;-76
2023/02/14 06:16:35;;;;;;;24.23;14.65;;;;;;;4.94;71.58;99699.59;10418070;28;20048;-75
2023/02/14 06:21:56;;;;;;;21.75;13.52;;;;;;;4.94;71.60;99718.22;10420315;28;20045;-76
2023/02/14 06:27:17;;;;;;;21.23;13.07;;;;;;;4.94;71.62;99715.44;10416458;28;20044;-79
2023/02/14 06:32:38;;;;;;;23.10;15.02;;;;;;;4.96;71.65;99724.00;10429692;28;20066;-79
2023/02/14 06:38:00;;;;;;;23.88;13.40;;;;;;;4.99;71.42;99717.44;10430147;28;20471;-79
2023/02/14 06:43:22;;;;;;;22.58;14.10;;;;;;;4.99;71.64;99715.41;10416081;28;20048;-79
2023/02/14 06:48:43;;;;;;;22.38;14.68;;;;;;;5.01;71.58;99721.19;10429517;28;20068;-80
2023/02/14 06:54:04;;;;;;;20.88;13.88;;;;;;;5.06;71.69;99719.66;10442749;28;20095;-77
2023/02/14 06:59:25;;;;;;;23.02;15.35;;;;;;;5.10;71.35;99717.38;10459014;28;20525;-76
2023/02/14 07:04:46;;;;;;;23.20;14.75;;;;;;;5.11;71.27;99718.88;10475840;28;20056;-77
2023/02/14 07:10:07;;;;;;;21.52;13.88;;;;;;;5.16;71.19;99720.88;10483898;28;20098;-76
2023/02/14 07:15:28;;;;;;;21.52;13.93;;;;;;;5.16;71.27;99720.88;10469414;28;20040;-76
2023/02/14 07:20:50;;;;;;;22.15;13.85;;;;;;;5.21;71.22;99714.59;10469527;28;20045;-76
2023/02/14 07:26:11;;;;;;;22.25;14.65;;;;;;;5.29;71.19;99704.44;10497055;28;20048;-76
2023/02/14 07:31:32;;;;;;;20.88;13.55;;;;;;;5.32;71.23;99708.97;10496783;28;20466;-77
2023/02/14 07:36:53;;;;;;;23.50;15.38;;;;;;;5.31;70.87;99706.72;10496954;28;20044;-76
2023/02/14 07:42:14;;;;;;;24.83;15.40;;;;;;;5.34;70.74;99711.97;10480942;28;20040;-77
2023/02/14 07:47:37;;;;;;;23.27;14.80;;;;;;;5.43;71.01;99711.69;10467466;28;20036;-77
2023/02/14 07:52:58;;;;;;;26.83;16.10;;;;;;;5.51;70.51;99700.06;10467012;28;20036;-76
2023/02/14 07:58:19;;;;;;;26.77;15.38;;;;;;;5.63;70.79;99709.81;10495565;28;20441;-76
2023/02/14 08:03:48;;;;;;;22.58;15.27;;;;;;;5.67;70.76;99704.72;10483196;28;20063;-76
2023/02/14 08:09:09;;;;;;;24.95;16.13;;;;;;;5.73;70.44;99702.69;10456148;28;20044;-76
2023/02/14 08:14:30;;;;;;;25.13;15.43;;;;;;;5.82;70.32;99705.13;10455043;28;20116;-77
2023/02/14 08:19:51;;;;;;;24.00;14.55;;;;;;;5.96;70.13;99706.81;10454278;28;20040;-77
2023/02/14 08:25:12;;;;;;;23.85;14.48;;;;;;;6.02;69.66;99704.00;10440696;28;20044;-76
2023/02/14 08:30:35;;;;;;;22.52;14.13;;;;;;;6.07;69.29;99705.19;10459023;28;20040;-79
2023/02/14 08:35:56;;;;;;;20.00;13.77;;;;;;;6.03;68.99;99711.78;10462191;28;20071;-75
2023/02/14 08:41:17;;;;;;;20.38;13.35;;;;;;;6.09;69.28;99705.47;10475605;28;20036;-75
2023/02/14 08:46:38;;;;;;;23.45;13.30;;;;;;;6.23;68.94;99701.53;10474514;28;20394;-75
2023/02/14 08:52:00;;;;;;;20.20;12.25;;;;;;;6.35;68.90;99711.25;10475217;28;20041;-75
2023/02/14 08:57:20;;;;;;;15.25;10.20;;;;;;;6.30;67.16;99703.75;10446172;28;20037;-75
2023/02/14 09:02:41;;;;;;;28.95;17.02;;;;;;;6.09;68.03;99713.78;10474261;28;20053;-76
2023/02/14 09:08:03;;;;;;;29.52;15.75;;;;;;;6.06;68.40;99712.00;10475006;28;20051;-75
2023/02/14 09:13:24;;;;;;;30.20;18.27;;;;;;;6.11;68.32;99708.47;10474528;28;20040;-75
2023/02/14 09:18:45;;;;;;;34.30;17.60;;;;;;;6.06;68.54;99712.00;10474178;28;20040;-75
2023/02/14 09:24:06;;;;;;;28.92;17.63;;;;;;;6.14;68.59;99712.97;10474175;28;20493;-76
2023/02/14 09:29:27;;;;;;;29.63;17.15;;;;;;;6.21;68.24;99712.41;10489344;28;20398;-75
2023/02/14 09:40:28;;;;;;;30.15;16.17;;;;;;;6.26;67.83;99709.56;10475022;28;20062;-75
2023/02/14 09:45:51;;;;;;;23.13;13.82;;;;;;;6.18;67.47;99708.66;10473650;28;20040;-76
2023/02/14 09:51:14;;;;;;;22.00;13.63;;;;;;;6.23;67.31;99707.84;10459317;28;20053;-75
2023/02/14 09:56:48;;;;;;;22.27;15.25;;;;;;;6.30;67.15;99712.81;10473275;28;20044;-75
2023/02/14 10:02:44;;;;;;;22.00;14.85;;;;;;;6.21;66.55;99717.94;10460834;28;20495;-75
2023/02/14 10:08:23;;;;;;;22.17;14.38;;;;;;;6.11;66.17;99711.22;10435434;28;20060;-75
2023/02/14 10:14:11;;;;;;;24.30;13.25;;;;;;;6.16;66.86;99718.75;10486265;28;20047;-75
2023/02/14 10:19:41;;;;;;;21.80;14.43;;;;;;;6.23;66.70;99716.16;10487486;28;20040;-75
2023/02/14 10:25:06;;;;;;;22.67;14.70;;;;;;;6.20;65.77;99716.44;10448814;28;20041;-76
2023/02/14 10:30:35;;;;;;;22.45;13.50;;;;;;;6.16;66.69;99705.63;10457469;28;20048;-76
2023/02/14 10:36:01;;;;;;;23.33;14.57;;;;;;;6.27;65.96;99721.41;10457966;28;20098;-76
2023/02/14 10:41:30;;;;;;;23.13;14.38;;;;;;;6.43;65.98;99717.72;10471485;28;20048;-76
2023/02/14 10:47:31;;;;;;;23.27;12.90;;;;;;;6.46;65.06;99716.69;10485219;28;20102;-76
2023/02/14 10:53:10;;;;;;;25.45;13.75;;;;;;;6.52;65.19;99714.63;10462648;28;20055;-75
2023/02/14 10:58:33;;;;;;;19.13;13.15;;;;;;;6.51;65.09;99717.91;10470095;28;20463;-75
2023/02/14 11:04:02;;;;;;;22.40;13.60;;;;;;;6.62;65.89;99719.81;10456638;28;20056;-77
2023/02/14 11:09:23;;;;;;;22.17;14.15;;;;;;;6.64;65.32;99715.25;10457711;28;20052;-75
2023/02/14 11:14:44;;;;;;;23.33;14.18;;;;;;;6.71;65.08;99708.38;10469744;28;20040;-77
2023/02/14 11:20:17;;;;;;;26.88;15.23;;;;;;;6.97;64.78;99714.13;10455852;28;20064;-76
2023/02/14 11:25:38;;;;;;;19.70;14.05;;;;;;;7.10;65.05;99708.66;10483167;28;20040;-77
2023/02/14 11:30:59;;;;;;;23.90;15.02;;;;;;;7.13;64.55;99701.31;10483038;28;20055;-74
2023/02/14 11:36:21;;;;;;;22.95;15.57;;;;;;;7.16;64.12;99692.69;10469515;28;20056;-74
2023/02/14 11:41:47;;;;;;;20.98;13.52;;;;;;;7.21;63.86;99688.31;10455393;28;20459;-77
2023/02/14 11:47:26;;;;;;;27.20;16.60;;;;;;;7.22;63.84;99695.38;10468830;28;20487;-76
2023/02/14 11:52:50;;;;;;;26.08;15.65;;;;;;;7.30;63.56;99681.66;10452466;28;20048;-79
2023/02/14 11:58:16;;;;;;;23.17;15.93;;;;;;;7.40;62.72;99677.19;10454467;28;20037;-77
2023/02/14 12:03:42;;;;;;;31.67;20.00;;;;;;;7.41;61.22;99673.16;10457960;28;20124;-77
2023/02/14 12:09:22;;;;;;;25.33;18.15;;;;;;;7.08;62.15;99680.66;10448398;28;20063;-76
2023/02/14 12:14:44;;;;;;;28.52;17.88;;;;;;;7.21;62.57;99668.88;10503905;28;20045;-77
2023/02/14 12:20:14;;;;;;;27.95;17.55;;;;;;;7.50;62.50;99652.56;10460564;28;20044;-76
2023/02/14 12:26:17;;;;;;;23.45;15.88;;;;;;;7.77;61.08;99656.19;10459640;28;20037;-77
2023/02/14 12:31:38;;;;;;;28.70;17.27;;;;;;;7.99;61.81;99653.03;10463443;28;20083;-76
2023/02/14 12:37:09;;;;;;;26.55;17.15;;;;;;;7.86;60.40;99641.88;10473442;28;20036;-76
2023/02/14 12:42:45;;;;;;;25.25;16.77;;;;;;;7.90;59.21;99645.09;10475324;28;20177;-77
2023/02/14 12:48:33;;;;;;;27.15;16.35;;;;;;;8.01;58.74;99640.13;10487672;28;20062;-76
2023/02/14 12:54:13;;;;;;;25.55;15.88;;;;;;;8.05;59.69;99634.22;10474728;28;20060;-76
2023/02/14 12:59:37;;;;;;;29.88;17.77;;;;;;;8.26;58.36;99629.53;10488140;28;20041;-77
2023/02/14 13:05:04;;;;;;;24.92;16.25;;;;;;;8.16;56.90;99622.91;10501236;28;20045;-76
2023/02/14 13:10:58;;;;;;;23.85;17.30;;;;;;;8.26;56.52;99631.56;10445925;28;20090;-77
2023/02/14 13:16:31;;;;;;;25.30;16.33;;;;;;;8.47;58.52;99617.78;10461028;28;20064;-77
2023/02/14 13:21:52;;;;;;;24.20;16.17;;;;;;;8.58;56.92;99621.09;10467574;28;20036;-76
2023/02/14 13:27:20;;;;;;;22.45;15.02;;;;;;;8.67;58.34;99614.34;10474270;28;20052;-77
2023/02/14 13:32:42;;;;;;;22.85;15.00;;;;;;;8.77;57.68;99609.84;10461182;28;20048;-76
2023/02/14 13:38:07;;;;;;;20.52;15.02;;;;;;;8.77;57.85;99607.06;10474211;28;20083;-75
2023/02/14 13:43:52;;;;;;;26.52;15.18;;;;;;;8.67;57.42;99603.22;10446937;28;20098;-76
2023/02/14 13:49:29;;;;;;;24.98;16.00;;;;;;;8.62;57.55;99592.97;10460955;28;20044;-75
2023/02/14 13:54:50;;;;;;;22.83;15.18;;;;;;;8.31;56.69;99606.44;10475618;28;20078;-75
2023/02/14 14:00:17;;;;;;;22.05;14.32;;;;;;;7.94;57.33;99589.94;10473655;28;20044;-75
2023/02/14 14:05:46;;;;;;;25.38;15.77;;;;;;;7.68;56.71;99599.72;10485396;28;20052;-74
2023/02/14 14:11:12;;;;;;;20.15;13.93;;;;;;;7.55;57.46;99604.50;10499837;28;20051;-73
2023/02/14 14:16:35;;;;;;;26.17;15.15;;;;;;;7.46;58.22;99591.75;10499871;28;20040;-73
2023/02/14 14:22:09;;;;;;;21.90;14.43;;;;;;;7.49;58.50;99596.25;10499608;28;20040;-73
2023/02/14 14:27:34;;;;;;;25.27;14.80;;;;;;;7.60;58.13;99584.19;10499263;28;20048;-73
2023/02/14 14:33:11;;;;;;;27.17;15.85;;;;;;;7.59;57.87;99582.69;10471717;28;20048;-73
2023/02/14 14:38:32;;;;;;;22.75;14.98;;;;;;;7.64;57.63;99588.16;10499730;28;20044;-75
2023/02/14 14:43:54;;;;;;;21.48;14.95;;;;;;;7.59;57.68;99574.34;10485115;28;20048;-75
2023/02/14 14:49:15;;;;;;;21.92;14.70;;;;;;;7.55;58.14;99577.47;10498570;28;20048;-75
2023/02/14 14:54:36;;;;;;;22.27;15.02;;;;;;;7.49;58.07;99574.00;10484354;28;20040;-77
2023/02/14 15:00:28;;;;;;;24.17;14.45;;;;;;;7.54;58.30;99570.41;10484964;28;20044;-77
2023/02/14 15:05:49;;;;;;;22.70;15.13;;;;;;;7.49;58.42;99565.66;10487948;28;20052;-76
2023/02/14 15:17:06;;;;;;;27.63;16.63;;;;;;;7.02;58.10;99551.50;10498498;28;20047;-76
2023/02/14 15:22:39;;;;;;;23.50;15.90;;;;;;;6.82;58.68;99547.25;10469889;28;20053;-77
2023/02/14 15:28:01;;;;;;;22.15;14.40;;;;;;;6.61;58.75;99544.25;10483750;28;20055;-77
2023/02/14 15:33:22;;;;;;;24.58;15.77;;;;;;;6.42;59.05;99544.25;10481965;28;20090;-77
2023/02/14 15:38:43;;;;;;;25.88;16.02;;;;;;;6.22;58.91;99553.06;10478078;28;20032;-77
2023/02/14 15:44:04;;;;;;;25.33;16.10;;;;;;;6.02;59.79;99555.03;10486871;28;20112;-76
2023/02/14 15:49:36;;;;;;;26.38;16.52;;;;;;;5.90;60.63;99561.97;10441451;28;20049;-75
2023/02/14 15:54:57;;;;;;;27.83;16.35;;;;;;;5.78;60.67;99559.78;10441400;28;20048;-75
2023/02/14 16:00:20;;;;;;;28.35;18.33;;;;;;;5.62;61.53;99564.22;10476568;28;20045;-76
2023/02/14 16:05:45;;;;;;;26.83;16.92;;;;;;;5.45;61.32;99567.13;10456551;28;20056;-75
2023/02/14 16:11:30;;;;;;;28.98;18.23;;;;;;;5.26;61.98;99567.03;10476258;28;20406;-76
2023/02/14 16:17:10;;;;;;;25.25;16.25;;;;;;;5.06;63.32;99559.88;10447341;28;20414;-75
2023/02/14 16:22:32;;;;;;;27.45;16.17;;;;;;;4.93;62.78;99559.72;10454635;28;20045;-76
2023/02/14 16:27:53;;;;;;;24.42;16.30;;;;;;;4.90;63.43;99557.97;10454352;28;20528;-75
2023/02/14 16:33:19;;;;;;;23.52;16.77;;;;;;;4.80;64.64;99551.97;10460119;28;20037;-75
2023/02/14 16:38:42;;;;;;;26.48;17.33;;;;;;;4.83;63.56;99555.75;10474129;28;20196;-78
2023/02/14 16:44:04;;;;;;;31.58;17.48;;;;;;;4.80;63.61;99554.00;10440523;28;20040;-77
2023/02/14 16:49:25;;;;;;;29.08;18.08;;;;;;;4.84;63.45;99554.50;10440815;28;20053;-77
2023/02/14 16:54:47;;;;;;;26.88;16.27;;;;;;;4.83;63.85;99548.22;10447662;28;20041;-76
2023/02/14 17:00:10;;;;;;;30.90;17.25;;;;;;;4.84;63.71;99554.50;10433780;28;20085;-76
2023/02/14 17:05:32;;;;;;;31.70;17.40;;;;;;;4.87;63.76;99553.47;10446894;28;20075;-79
2023/02/14 17:10:55;;;;;;;25.25;16.38;;;;;;;4.92;63.80;99549.13;10446831;28;20571;-79
2023/02/14 17:16:16;;;;;;;28.20;16.02;;;;;;;4.83;63.75;99542.66;10443544;28;20044;-79
2023/02/14 17:21:37;;;;;;;27.25;16.55;;;;;;;4.77;64.27;99541.94;10460269;28;20045;-79
2023/02/14 17:26:58;;;;;;;26.33;16.73;;;;;;;4.71;63.82;99543.97;10446237;28;20501;-77
2023/02/14 17:32:20;;;;;;;20.42;14.45;;;;;;;4.59;66.13;99543.28;10445985;28;20045;-78
2023/02/14 17:37:41;;;;;;;26.00;16.92;;;;;;;4.57;65.46;99542.31;10445828;28;20487;-77
2023/02/14 17:43:02;;;;;;;25.35;16.67;;;;;;;4.64;65.29;99541.03;10464855;28;20051;-77
2023/02/14 17:48:24;;;;;;;28.67;18.58;;;;;;;4.74;65.28;99550.53;10473051;28;20044;-77
2023/02/14 17:53:47;;;;;;;25.27;18.25;;;;;;;4.82;65.58;99546.69;10472838;28;20066;-75
2023/02/14 17:59:08;;;;;;;21.42;14.30;;;;;;;4.94;65.55;99554.94;10466110;28;20505;-74
2023/02/14 18:04:29;;;;;;;19.73;13.45;;;;;;;5.02;65.42;99550.31;10464492;28;20052;-73
2023/02/14 18:09:50;;;;;;;23.02;15.02;;;;;;;5.04;65.21;99536.75;10486448;28;20071;-73
2023/02/14 18:15:11;;;;;;;23.85;15.15;;;;;;;5.05;65.02;99541.75;10444963;28;20037;-73
2023/02/14 18:20:32;;;;;;;22.88;15.32;;;;;;;5.08;65.23;99537.22;10430658;28;20166;-73
2023/02/14 18:25:55;;;;;;;25.33;15.38;;;;;;;5.05;65.28;99527.19;10430499;28;20072;-73
2023/02/14 18:31:16;;;;;;;24.75;15.63;;;;;;;5.05;65.54;99533.47;10444006;28;20053;-73
2023/02/14 18:36:39;;;;;;;26.77;17.08;;;;;;;5.06;65.72;99537.72;10416763;28;20049;-76
2023/02/14 18:42:00;;;;;;;25.15;15.30;;;;;;;5.06;65.64;99523.13;10443758;28;20045;-77
2023/02/14 18:47:21;;;;;;;25.42;16.20;;;;;;;4.99;66.16;99520.91;10429761;28;20041;-75
2023/02/14 18:52:42;;;;;;;28.52;16.65;;;;;;;4.95;66.18;99515.66;10429685;28;20052;-76
2023/02/14 18:58:03;;;;;;;25.52;16.15;;;;;;;4.90;66.46;99519.22;10442939;28;20048;-74
2023/02/14 19:03:27;;;;;;;27.98;16.17;;;;;;;4.86;66.63;99513.22;10429255;28;20056;-73
2023/02/14 19:08:48;;;;;;;25.70;16.00;;;;;;;4.85;66.25;99517.25;10414950;28;20049;-75
2023/02/14 19:14:27;;;;;;;25.83;17.25;;;;;;;4.91;66.57;99514.44;10432873;28;20491;-74
2023/02/14 19:19:50;;;;;;;24.02;15.80;;;;;;;4.89;66.37;99518.47;10414468;28;20091;-76
2023/02/14 19:25:11;;;;;;;24.88;15.65;;;;;;;4.86;66.39;99519.50;10414412;28;20040;-74
2023/02/14 19:30:32;;;;;;;28.70;19.23;;;;;;;4.83;67.03;99515.00;10414007;28;20486;-75
2023/02/14 19:36:00;;;;;;;27.58;17.85;;;;;;;4.85;66.87;99512.47;10414162;28;20655;-77
2023/02/14 19:41:23;;;;;;;28.38;17.92;;;;;;;4.78;67.05;99521.31;10441030;28;20047;-74
2023/02/14 19:46:47;;;;;;;28.02;17.55;;;;;;;4.76;67.35;99518.31;10442825;28;20033;-74
2023/02/14 19:52:18;;;;;;;30.02;18.02;;;;;;;4.83;67.16;99514.25;10417541;28;20036;-74
2023/02/14 19:57:46;;;;;;;27.77;17.27;;;;;;;4.88;67.56;99521.75;10448894;28;20045;-74
2023/02/14 20:03:07;;;;;;;28.77;17.13;;;;;;;4.95;67.20;99520.47;10440281;28;20049;-73
2023/02/14 20:08:28;;;;;;;35.60;19.80;;;;;;;4.80;67.51;99521.53;10413484;28;20103;-74
2023/02/14 20:13:49;;;;;;;28.38;18.25;;;;;;;4.68;67.03;99513.84;10429028;28;20060;-73
2023/02/14 20:19:11;;;;;;;32.50;18.90;;;;;;;4.75;67.22;99519.56;10412969;28;20041;-73
2023/02/14 20:24:32;;;;;;;33.97;20.45;;;;;;;4.70;67.32;99506.50;10429403;28;20390;-73
2023/02/14 20:29:54;;;;;;;28.77;18.13;;;;;;;4.64;67.61;99511.34;10421042;28;20402;-74
2023/02/14 20:35:15;;;;;;;22.75;16.30;;;;;;;4.64;67.42;99508.59;10445061;28;20443;-74
2023/02/14 20:40:39;;;;;;;25.95;15.65;;;;;;;4.69;67.61;99493.94;10462654;28;20044;-76
2023/02/14 20:46:00;;;;;;;29.13;17.85;;;;;;;4.71;67.60;99501.72;10460063;28;20051;-76
2023/02/14 20:51:21;;;;;;;25.08;16.73;;;;;;;4.75;67.97;99488.41;10448266;28;20102;-75
2023/02/14 20:56:43;;;;;;;24.27;16.30;;;;;;;4.65;67.26;99489.97;10448464;28;20037;-73
2023/02/14 21:02:04;;;;;;;21.88;14.05;;;;;;;4.57;67.35;99482.22;10474672;28;20521;-78
2023/02/14 21:07:29;;;;;;;24.42;15.52;;;;;;;4.42;68.21;99481.78;10474820;28;20036;-78
2023/02/14 21:12:52;;;;;;;24.13;15.75;;;;;;;4.39;68.43;99487.59;10475823;28;20052;-76
2023/02/14 21:18:13;;;;;;;23.45;14.82;;;;;;;4.46;68.01;99476.75;10488573;28;20048;-76
2023/02/14 21:23:34;;;;;;;26.38;17.33;;;;;;;4.46;68.79;99476.00;10487969;28;20116;-76
2023/02/14 21:28:56;;;;;;;23.65;16.13;;;;;;;4.29;68.38;99476.84;10460531;28;20538;-76
2023/02/14 21:34:17;;;;;;;25.20;16.55;;;;;;;4.27;68.71;99473.09;10460934;28;20067;-75
2023/02/14 21:39:38;;;;;;;26.85;18.13;;;;;;;4.35;68.19;99460.22;10475451;28;20051;-75
2023/02/14 21:50:39;;;;;;;26.85;17.10;;;;;;;4.49;68.70;99453.59;10478877;28;20478;-75
2023/02/14 21:56:09;;;;;;;30.30;18.77;;;;;;;4.44;68.80;99456.38;10458967;28;20040;-75
2023/02/14 22:01:31;;;;;;;25.20;16.33;;;;;;;4.34;68.78;99444.88;10458839;28;20125;-75
2023/02/14 22:06:52;;;;;;;26.75;17.00;;;;;;;4.38;68.86;99444.63;10458639;28;20092;-75
2023/02/14 22:12:13;;;;;;;28.55;17.30;;;;;;;4.37;69.34;99446.63;10441260;28;20056;-75
2023/02/14 22:17:34;;;;;;;24.63;16.02;;;;;;;4.42;68.69;99448.59;10417354;28;20091;-75
2023/02/14 22:22:55;;;;;;;27.95;16.55;;;;;;;4.49;68.98;99453.59;10430741;28;20037;-75
2023/02/14 22:28:16;;;;;;;27.67;17.60;;;;;;;4.29;69.46;99456.72;10430623;28;20071;-75
2023/02/14 22:33:37;;;;;;;27.52;17.38;;;;;;;4.27;68.91;99442.66;10429962;28;20041;-75
2023/02/14 22:38:58;;;;;;;26.55;16.95;;;;;;;4.40;69.51;99444.84;10416437;28;20041;-75
2023/02/14 22:44:20;;;;;;;26.55;17.52;;;;;;;4.50;69.21;99437.75;10415921;28;20044;-75
2023/02/14 22:49:41;;;;;;;29.58;18.25;;;;;;;4.53;69.00;99425.66;10428804;28;20391;-74
2023/02/14 22:55:02;;;;;;;29.98;17.98;;;;;;;4.53;69.03;99425.66;10429040;28;20041;-75
2023/02/14 23:00:23;;;;;;;30.45;19.13;;;;;;;4.54;69.11;99427.94;10415167;28;20041;-75
2023/02/14 23:05:44;;;;;;;30.90;19.23;;;;;;;4.53;69.21;99426.41;10428770;28;20044;-75
2023/02/14 23:11:07;;;;;;;34.55;20.27;;;;;;;4.42;69.52;99420.94;10428787;28;20052;-75
2023/02/14 23:22:13;;;;;;;30.48;19.75;;;;;;;4.28;69.39;99414.50;10419511;28;20064;-75
2023/02/14 23:27:37;;;;;;;38.13;21.00;;;;;;;4.31;69.89;99412.72;10428196;28;20045;-75
2023/02/14 23:32:58;;;;;;;31.50;20.53;;;;;;;4.24;69.97;99411.25;10401030;28;20112;-75
2023/02/14 23:38:19;;;;;;;34.40;21.15;;;;;;;4.12;69.33;99409.81;10428057;28;20065;-75
2023/02/14 23:43:40;;;;;;;33.15;19.45;;;;;;;4.09;69.27;99397.03;10414003;28;20049;-75
2023/02/14 23:49:02;;;;;;;36.30;19.83;;;;;;;4.05;70.67;99391.00;10427481;28;20049;-75
2023/02/14 23:54:23;;;;;;;37.53;21.98;;;;;;;3.86;71.03;99395.63;10413877;28;20110;-75
2023/02/14 23:59:44;;;;;;;30.90;18.88;;;;;;;3.90;70.68;99393.38;10403420;28;20041;-75
